createdAt,value
2017-01-04T00:00:56.428Z,42.93
2017-01-04T00:01:56.452Z,42.63
2017-01-04T00:02:56.473Z,43.11
2017-01-04T00:03:56.102Z,42.53
2017-01-04T00:04:56.143Z,42.63
2017-01-04T00:05:56.568Z,43.11
2017-01-04T00:06:56.183Z,43.3
2017-01-04T00:07:56.605Z,42.53
2017-01-04T00:08:56.634Z,42.72
2017-01-04T00:09:56.662Z,42.63
2017-01-04T00:10:56.688Z,42.82
2017-01-04T00:11:56.316Z,43.2
2017-01-04T00:12:56.737Z,42.33
2017-01-04T00:13:56.766Z,43.2
2017-01-04T00:14:56.395Z,42.63
2017-01-04T00:15:56.815Z,43.2
2017-01-04T00:16:56.841Z,43.3
2017-01-04T00:17:56.477Z,43.2
2017-01-04T00:18:56.503Z,42.43
2017-01-04T00:19:56.527Z,42.33
2017-01-04T00:20:56.584Z,42.53
2017-01-04T00:21:56.580Z,42.24
2017-01-04T00:22:57.000Z,42.14
2017-01-04T00:23:57.038Z,42.43
2017-01-04T00:24:57.054Z,42.43
2017-01-04T00:25:56.687Z,42.53
2017-01-04T00:26:57.104Z,42.63
2017-01-04T00:27:57.140Z,43.01
2017-01-04T00:28:56.765Z,43.2
2017-01-04T00:29:56.791Z,43.3
2017-01-04T00:30:56.818Z,42.43
2017-01-04T00:31:57.239Z,42.43
2017-01-04T00:32:56.873Z,42.53
2017-01-04T00:33:57.288Z,42.63
2017-01-04T00:34:56.926Z,42.53
2017-01-04T00:35:57.346Z,42.33
2017-01-04T00:36:56.976Z,42.63
2017-01-04T00:37:57.000Z,42.14
2017-01-04T00:38:57.032Z,42.72
2017-01-04T00:39:57.053Z,42.63
2017-01-04T00:40:57.475Z,43.01
2017-01-04T00:41:57.503Z,42.41
2017-01-04T00:42:57.532Z,43.2
2017-01-04T00:43:57.157Z,42.99
2017-01-04T00:44:57.581Z,42.41
2017-01-04T00:45:57.610Z,42.43
2017-01-04T00:46:57.635Z,42.7
2017-01-04T00:47:57.660Z,43.18
2017-01-04T00:48:57.293Z,43.08
2017-01-04T00:49:57.321Z,42.5
2017-01-04T00:50:57.354Z,42.41
2017-01-04T00:51:57.767Z,43.08
2017-01-04T00:52:57.800Z,42.41
2017-01-04T00:53:57.821Z,43.18
2017-01-04T00:54:57.849Z,42.53
2017-01-04T00:55:57.474Z,43.28
2017-01-04T00:56:57.503Z,42.5
2017-01-04T00:57:57.540Z,42.41
2017-01-04T00:58:57.556Z,42.41
2017-01-04T00:59:57.576Z,42.6
2017-01-04T01:00:57.606Z,42.5
2017-01-04T01:01:58.027Z,42.7
2017-01-04T01:02:57.659Z,42.5
2017-01-04T01:03:57.680Z,42.5
2017-01-04T01:04:58.105Z,43.18
2017-01-04T01:05:58.134Z,43.08
2017-01-04T01:06:57.763Z,42.99
2017-01-04T01:07:58.183Z,42.5
2017-01-04T01:08:57.821Z,42.6
2017-01-04T01:09:58.241Z,42.5
2017-01-04T01:10:58.271Z,42.41
2017-01-04T01:11:57.898Z,43.08
2017-01-04T01:12:58.320Z,43.28
2017-01-04T01:13:57.948Z,43.18
2017-01-04T01:14:57.972Z,43.08
2017-01-04T01:15:58.398Z,43.18
2017-01-04T01:16:58.022Z,42.41
2017-01-04T01:17:58.456Z,43.18
2017-01-04T01:18:58.475Z,43.28
2017-01-04T01:19:58.501Z,43.08
2017-01-04T01:20:58.133Z,42.99
2017-01-04T01:21:58.158Z,42.99
2017-01-04T01:22:58.583Z,43.08
2017-01-04T01:23:58.608Z,42.41
2017-01-04T01:24:58.632Z,42.99
2017-01-04T01:25:58.661Z,43.18
2017-01-04T01:26:58.681Z,43.08
2017-01-04T01:27:58.315Z,42.41
2017-01-04T01:28:58.739Z,42.41
2017-01-04T01:29:58.368Z,42.22
2017-01-04T01:30:58.393Z,42.41
2017-01-04T01:31:58.815Z,42.6
2017-01-04T01:32:58.446Z,42.5
2017-01-04T01:33:58.868Z,42.5
2017-01-04T01:34:58.900Z,42.7
2017-01-04T01:35:58.525Z,42.6
2017-01-04T01:36:58.545Z,42.6
2017-01-04T01:37:58.589Z,42.41
2017-01-04T01:38:58.999Z,42.12
2017-01-04T01:39:59.020Z,42.6
2017-01-04T01:40:58.663Z,42.5
2017-01-04T01:41:59.077Z,42.7
2017-01-04T01:42:58.706Z,42.41
2017-01-04T01:43:58.734Z,42.6
2017-01-04T01:44:59.160Z,42.5
2017-01-04T01:45:59.181Z,42.22
2017-01-04T01:46:58.805Z,42.03
2017-01-04T01:47:58.842Z,42.6
2017-01-04T01:48:59.258Z,42.5
2017-01-04T01:49:59.291Z,42.12
2017-01-04T01:50:59.308Z,42.22
2017-01-04T01:51:58.940Z,42.3
2017-01-04T01:52:58.961Z,42.6
2017-01-04T01:53:59.390Z,42.5
2017-01-04T01:54:59.415Z,42.5
2017-01-04T01:55:59.444Z,42.5
2017-01-04T01:56:59.073Z,42.03
2017-01-04T01:57:59.097Z,42.22
2017-01-04T01:58:59.518Z,42.49
2017-01-04T01:59:59.150Z,42.32
2017-01-04T02:00:59.175Z,42.58
2017-01-04T02:01:59.628Z,42.32
2017-01-04T02:02:59.225Z,42.32
2017-01-04T02:03:59.254Z,42.12
2017-01-04T02:04:59.681Z,42.03
2017-01-04T02:05:59.307Z,42.03
2017-01-04T02:06:59.333Z,42.12
2017-01-04T02:07:59.360Z,42.03
2017-01-04T02:08:59.777Z,42.12
2017-01-04T02:09:59.410Z,42.32
2017-01-04T02:10:59.443Z,42.3
2017-01-04T02:11:59.860Z,42.3
2017-01-04T02:12:59.488Z,42.22
2017-01-04T02:13:59.510Z,42.39
2017-01-04T02:14:59.942Z,41.91
2017-01-04T02:15:59.963Z,42.1
2017-01-04T02:16:59.990Z,42.12
2017-01-04T02:18:00.017Z,42.39
2017-01-04T02:18:59.641Z,42
2017-01-04T02:19:59.665Z,42.3
2017-01-04T02:20:59.702Z,42
2017-01-04T02:22:00.119Z,42.68
2017-01-04T02:23:00.140Z,41.82
2017-01-04T02:23:59.778Z,42.1
2017-01-04T02:25:00.195Z,42.2
2017-01-04T02:26:00.226Z,41.91
2017-01-04T02:27:00.247Z,42
2017-01-04T02:28:00.275Z,42.1
2017-01-04T02:29:00.296Z,42.1
2017-01-04T02:29:59.933Z,41.91
2017-01-04T02:31:00.354Z,42.3
2017-01-04T02:32:00.378Z,42
2017-01-04T02:33:00.012Z,41.91
2017-01-04T02:34:00.037Z,42.3
2017-01-04T02:35:00.461Z,42.2
2017-01-04T02:36:00.479Z,42.58
2017-01-04T02:37:00.511Z,42
2017-01-04T02:38:00.535Z,41.91
2017-01-04T02:39:00.167Z,41.91
2017-01-04T02:40:00.593Z,42
2017-01-04T02:41:00.610Z,42.2
2017-01-04T02:42:00.242Z,42.2
2017-01-04T02:43:00.271Z,42
2017-01-04T02:44:00.295Z,41.82
2017-01-04T02:45:00.716Z,42
2017-01-04T02:46:00.349Z,42.39
2017-01-04T02:47:00.770Z,42.49
2017-01-04T02:48:00.398Z,42.2
2017-01-04T02:49:00.423Z,42.1
2017-01-04T02:50:00.448Z,42.58
2017-01-04T02:51:00.477Z,41.82
2017-01-04T02:52:00.501Z,42.2
2017-01-04T02:53:00.530Z,42.2
2017-01-04T02:54:00.556Z,42.2
2017-01-04T02:55:00.980Z,42.2
2017-01-04T02:56:00.604Z,42.39
2017-01-04T02:57:01.030Z,42.39
2017-01-04T02:58:00.653Z,42.3
2017-01-04T02:59:01.083Z,42.39
2017-01-04T03:00:00.711Z,42.2
2017-01-04T03:01:01.132Z,42.3
2017-01-04T03:02:00.759Z,42.3
2017-01-04T03:03:01.181Z,41.91
2017-01-04T03:04:00.814Z,42
2017-01-04T03:05:01.236Z,42.2
2017-01-04T03:06:01.267Z,42.3
2017-01-04T03:07:01.285Z,42.1
2017-01-04T03:08:01.313Z,42.1
2017-01-04T03:09:00.937Z,42.39
2017-01-04T03:10:01.363Z,42
2017-01-04T03:11:01.396Z,42.3
2017-01-04T03:12:01.417Z,42.1
2017-01-04T03:13:01.445Z,42.2
2017-01-04T03:14:01.471Z,42.3
2017-01-04T03:15:01.499Z,42.39
2017-01-04T03:16:01.520Z,42.1
2017-01-04T03:17:01.153Z,42.1
2017-01-04T03:18:01.573Z,42
2017-01-04T03:19:01.205Z,41.91
2017-01-04T03:20:01.626Z,42.1
2017-01-04T03:21:01.655Z,42.2
2017-01-04T03:22:01.676Z,42.1
2017-01-04T03:23:01.304Z,41.72
2017-01-04T03:24:01.337Z,41.62
2017-01-04T03:25:01.763Z,41.72
2017-01-04T03:26:01.783Z,42
2017-01-04T03:27:01.412Z,42.39
2017-01-04T03:28:01.437Z,42.1
2017-01-04T03:29:01.461Z,42.1
2017-01-04T03:30:01.876Z,42.2
2017-01-04T03:31:01.515Z,42.1
2017-01-04T03:32:01.935Z,42.1
2017-01-04T03:33:01.564Z,42
2017-01-04T03:34:01.593Z,42.1
2017-01-04T03:35:02.013Z,42.1
2017-01-04T03:36:02.043Z,42.2
2017-01-04T03:37:02.059Z,42.2
2017-01-04T03:38:01.696Z,42
2017-01-04T03:39:01.719Z,41.91
2017-01-04T03:40:01.745Z,42
2017-01-04T03:41:02.165Z,42.2
2017-01-04T03:42:02.195Z,42.1
2017-01-04T03:43:01.824Z,42.2
2017-01-04T03:44:01.848Z,42.2
2017-01-04T03:45:02.274Z,42.1
2017-01-04T03:46:01.902Z,42.1
2017-01-04T03:47:01.927Z,42.2
2017-01-04T03:48:01.955Z,42
2017-01-04T03:49:02.380Z,42.2
2017-01-04T03:50:02.405Z,42.2
2017-01-04T03:51:02.031Z,42.2
2017-01-04T03:52:02.059Z,42.1
2017-01-04T03:53:02.083Z,41.62
2017-01-04T03:54:02.103Z,42.3
2017-01-04T03:55:02.129Z,41.72
2017-01-04T03:56:02.167Z,41.72
2017-01-04T03:57:02.582Z,42.3
2017-01-04T03:58:02.219Z,41.72
2017-01-04T03:59:02.635Z,42
2017-01-04T04:00:02.660Z,41.72
2017-01-04T04:01:02.689Z,42
2017-01-04T04:02:02.315Z,42.2
2017-01-04T04:03:02.339Z,41.53
2017-01-04T04:04:02.363Z,41.91
2017-01-04T04:05:02.816Z,41.62
2017-01-04T04:06:02.823Z,41.72
2017-01-04T04:07:02.841Z,41.62
2017-01-04T04:08:02.466Z,41.62
2017-01-04T04:09:02.499Z,42
2017-01-04T04:10:02.534Z,42.1
2017-01-04T04:11:02.549Z,42
2017-01-04T04:12:02.969Z,42
2017-01-04T04:13:02.998Z,42
2017-01-04T04:14:03.020Z,42
2017-01-04T04:15:03.048Z,42
2017-01-04T04:16:02.684Z,42
2017-01-04T04:17:03.096Z,41.91
2017-01-04T04:18:02.730Z,41.91
2017-01-04T04:19:03.150Z,42
2017-01-04T04:20:02.787Z,42
2017-01-04T04:21:02.809Z,42.2
2017-01-04T04:22:03.228Z,41.91
2017-01-04T04:23:02.861Z,41.91
2017-01-04T04:24:03.282Z,42
2017-01-04T04:25:02.909Z,42
2017-01-04T04:26:03.333Z,42
2017-01-04T04:27:03.361Z,42
2017-01-04T04:28:02.988Z,41.82
2017-01-04T04:29:03.410Z,41.91
2017-01-04T04:30:03.039Z,41.82
2017-01-04T04:31:03.464Z,42.1
2017-01-04T04:32:03.483Z,42.2
2017-01-04T04:33:03.117Z,41.91
2017-01-04T04:34:03.538Z,42
2017-01-04T04:35:03.566Z,42
2017-01-04T04:36:03.191Z,41.82
2017-01-04T04:37:03.219Z,41.33
2017-01-04T04:38:03.256Z,41.53
2017-01-04T04:39:03.273Z,41.91
2017-01-04T04:40:03.702Z,42.1
2017-01-04T04:41:03.719Z,41.91
2017-01-04T04:42:03.353Z,42
2017-01-04T04:43:03.772Z,41.53
2017-01-04T04:44:03.797Z,41.43
2017-01-04T04:45:03.822Z,41.43
2017-01-04T04:46:03.851Z,41.53
2017-01-04T04:47:03.475Z,41.7
2017-01-04T04:48:03.895Z,41.53
2017-01-04T04:49:03.529Z,41.5
2017-01-04T04:50:03.558Z,41.62
2017-01-04T04:51:03.578Z,41.53
2017-01-04T04:52:04.002Z,41.14
2017-01-04T04:53:03.636Z,41.33
2017-01-04T04:54:03.660Z,41.33
2017-01-04T04:55:03.681Z,41.91
2017-01-04T04:56:03.710Z,41.91
2017-01-04T04:57:03.738Z,41.33
2017-01-04T04:58:03.763Z,41.43
2017-01-04T04:59:03.788Z,41.43
2017-01-04T05:00:03.817Z,41.43
2017-01-04T05:01:04.238Z,41.31
2017-01-04T05:02:03.864Z,41.5
2017-01-04T05:03:04.287Z,41.43
2017-01-04T05:04:04.312Z,41.5
2017-01-04T05:05:04.350Z,41.53
2017-01-04T05:06:03.969Z,41.5
2017-01-04T05:07:03.993Z,41.14
2017-01-04T05:08:04.022Z,41.24
2017-01-04T05:09:04.444Z,41.53
2017-01-04T05:10:04.472Z,41.43
2017-01-04T05:11:04.101Z,41.43
2017-01-04T05:12:04.126Z,41.41
2017-01-04T05:13:04.546Z,41.53
2017-01-04T05:14:04.171Z,41.53
2017-01-04T05:15:04.203Z,41.24
2017-01-04T05:16:04.228Z,41.41
2017-01-04T05:17:04.649Z,41.05
2017-01-04T05:18:04.673Z,41.31
2017-01-04T05:19:04.698Z,41.41
2017-01-04T05:20:04.727Z,41.43
2017-01-04T05:21:04.748Z,41.41
2017-01-04T05:22:04.380Z,41.79
2017-01-04T05:23:04.806Z,41.43
2017-01-04T05:24:04.834Z,41.91
2017-01-04T05:25:04.454Z,41.33
2017-01-04T05:26:04.879Z,41.12
2017-01-04T05:27:04.513Z,41.62
2017-01-04T05:28:04.934Z,41.82
2017-01-04T05:29:04.566Z,41.33
2017-01-04T05:30:04.619Z,41.53
2017-01-04T05:31:04.607Z,41.82
2017-01-04T05:32:04.640Z,41.53
2017-01-04T05:33:05.061Z,41.82
2017-01-04T05:34:05.094Z,41.82
2017-01-04T05:35:04.718Z,41.82
2017-01-04T05:36:04.743Z,41.43
2017-01-04T05:37:04.763Z,41.24
2017-01-04T05:38:04.812Z,41.53
2017-01-04T05:39:05.221Z,41.43
2017-01-04T05:40:04.845Z,41.33
2017-01-04T05:41:04.874Z,41.43
2017-01-04T05:42:05.295Z,41.43
2017-01-04T05:43:04.923Z,41.24
2017-01-04T05:44:05.343Z,41.33
2017-01-04T05:45:05.368Z,40.95
2017-01-04T05:46:04.996Z,41.05
2017-01-04T05:47:05.021Z,41.24
2017-01-04T05:48:05.049Z,41.14
2017-01-04T05:49:05.083Z,40.95
2017-01-04T05:50:05.498Z,40.85
2017-01-04T05:51:05.124Z,41.14
2017-01-04T05:52:05.156Z,41.24
2017-01-04T05:53:05.581Z,41.16
2017-01-04T05:54:05.205Z,41.06
2017-01-04T05:55:05.242Z,41.26
2017-01-04T05:56:05.655Z,41.16
2017-01-04T05:57:05.287Z,41.45
2017-01-04T05:58:05.308Z,41.26
2017-01-04T05:59:05.333Z,40.58
2017-01-04T06:00:05.757Z,41.45
2017-01-04T06:01:05.386Z,40.58
2017-01-04T06:02:05.811Z,40.68
2017-01-04T06:03:05.439Z,40.58
2017-01-04T06:04:05.860Z,40.68
2017-01-04T06:05:05.888Z,40.58
2017-01-04T06:06:05.912Z,40.78
2017-01-04T06:07:05.937Z,40.78
2017-01-04T06:08:05.566Z,40.49
2017-01-04T06:09:05.591Z,40.58
2017-01-04T06:10:06.011Z,40.68
2017-01-04T06:11:05.644Z,40.68
2017-01-04T06:12:05.669Z,40.49
2017-01-04T06:13:06.093Z,40.51
2017-01-04T06:14:06.118Z,40.78
2017-01-04T06:15:06.144Z,40.49
2017-01-04T06:16:06.171Z,40.61
2017-01-04T06:17:06.200Z,40.58
2017-01-04T06:18:06.220Z,40.49
2017-01-04T06:19:05.853Z,40.61
2017-01-04T06:20:05.873Z,40.7
2017-01-04T06:21:05.903Z,40.7
2017-01-04T06:22:06.330Z,40.8
2017-01-04T06:23:05.956Z,40.7
2017-01-04T06:24:06.372Z,40.7
2017-01-04T06:25:06.396Z,40.7
2017-01-04T06:26:06.427Z,40.61
2017-01-04T06:27:06.453Z,40.89
2017-01-04T06:28:06.086Z,40.41
2017-01-04T06:29:06.116Z,40.12
2017-01-04T06:30:06.136Z,40.03
2017-01-04T06:31:06.165Z,40.03
2017-01-04T06:32:06.185Z,39.93
2017-01-04T06:33:06.610Z,39.93
2017-01-04T06:34:06.239Z,39.83
2017-01-04T06:35:06.267Z,40.12
2017-01-04T06:36:06.291Z,39.93
2017-01-04T06:37:06.321Z,40.03
2017-01-04T06:38:06.766Z,39.83
2017-01-04T06:39:06.766Z,40.03
2017-01-04T06:40:06.794Z,39.93
2017-01-04T06:41:06.423Z,39.74
2017-01-04T06:42:06.446Z,39.93
2017-01-04T06:43:06.476Z,39.74
2017-01-04T06:44:06.501Z,40.03
2017-01-04T06:45:06.527Z,39.83
2017-01-04T06:46:06.559Z,39.74
2017-01-04T06:47:06.972Z,39.74
2017-01-04T06:48:06.604Z,39.54
2017-01-04T06:49:07.028Z,39.54
2017-01-04T06:50:06.657Z,39.64
2017-01-04T06:51:07.077Z,39.54
2017-01-04T06:52:07.110Z,40.03
2017-01-04T06:53:06.735Z,39.54
2017-01-04T06:54:06.760Z,39.93
2017-01-04T06:55:07.184Z,39.83
2017-01-04T06:56:06.845Z,39.83
2017-01-04T06:57:07.241Z,39.83
2017-01-04T06:58:06.870Z,39.74
2017-01-04T06:59:06.887Z,39.74
2017-01-04T07:00:06.923Z,39.74
2017-01-04T07:01:07.340Z,39.64
2017-01-04T07:02:06.969Z,39.83
2017-01-04T07:03:07.389Z,39.83
2017-01-04T07:04:07.022Z,39.93
2017-01-04T07:05:07.046Z,39.74
2017-01-04T07:06:07.471Z,40.03
2017-01-04T07:07:07.503Z,39.26
2017-01-04T07:08:07.124Z,40.03
2017-01-04T07:09:07.152Z,39.93
2017-01-04T07:10:07.181Z,39.06
2017-01-04T07:11:07.597Z,39.45
2017-01-04T07:12:07.626Z,39.83
2017-01-04T07:13:07.262Z,39.54
2017-01-04T07:14:07.675Z,39.74
2017-01-04T07:15:07.707Z,39.83
2017-01-04T07:16:07.335Z,40.03
2017-01-04T07:17:07.360Z,40.03
2017-01-04T07:18:07.389Z,39.45
2017-01-04T07:19:07.414Z,39.26
2017-01-04T07:20:07.834Z,39.26
2017-01-04T07:21:07.463Z,39.45
2017-01-04T07:22:07.887Z,39.06
2017-01-04T07:23:07.916Z,39.06
2017-01-04T07:24:07.945Z,39.26
2017-01-04T07:25:07.572Z,39.64
2017-01-04T07:26:07.597Z,39.54
2017-01-04T07:27:08.018Z,39.74
2017-01-04T07:28:08.047Z,38.87
2017-01-04T07:29:07.683Z,39.16
2017-01-04T07:30:07.999Z,39.26
2017-01-04T07:31:07.724Z,39.26
2017-01-04T07:32:08.149Z,39.45
2017-01-04T07:33:08.169Z,39.36
2017-01-04T07:34:08.197Z,39.45
2017-01-04T07:35:07.830Z,39.54
2017-01-04T07:36:08.254Z,39.54
2017-01-04T07:37:07.883Z,39.36
2017-01-04T07:38:08.307Z,39.54
2017-01-04T07:39:08.336Z,39.06
2017-01-04T07:40:07.961Z,39.54
2017-01-04T07:41:07.989Z,39.16
2017-01-04T07:42:08.013Z,39.26
2017-01-04T07:43:08.438Z,39.26
2017-01-04T07:44:08.467Z,39.26
2017-01-04T07:45:08.487Z,39.16
2017-01-04T07:46:08.132Z,39.26
2017-01-04T07:47:08.140Z,39.36
2017-01-04T07:48:08.568Z,39.16
2017-01-04T07:49:08.593Z,39.45
2017-01-04T07:50:08.221Z,39.26
2017-01-04T07:51:08.249Z,39.54
2017-01-04T07:52:08.274Z,39.06
2017-01-04T07:53:08.299Z,39.36
2017-01-04T07:54:08.327Z,39.45
2017-01-04T07:55:08.769Z,39.26
2017-01-04T07:56:08.380Z,39.45
2017-01-04T07:57:08.409Z,39.26
2017-01-04T07:58:08.828Z,39.45
2017-01-04T07:59:08.457Z,39.26
2017-01-04T08:00:08.486Z,39.26
2017-01-04T08:01:08.908Z,39.26
2017-01-04T08:02:08.931Z,39.26
2017-01-04T08:03:08.564Z,39.45
2017-01-04T08:04:08.592Z,39.36
2017-01-04T08:05:09.013Z,39.36
2017-01-04T08:06:08.640Z,39.45
2017-01-04T08:07:08.666Z,39.45
2017-01-04T08:08:08.686Z,39.45
2017-01-04T08:09:08.723Z,39.36
2017-01-04T08:10:09.139Z,39.36
2017-01-04T08:11:08.767Z,39.36
2017-01-04T08:12:09.193Z,39.36
2017-01-04T08:13:09.217Z,39.45
2017-01-04T08:14:08.845Z,39.26
2017-01-04T08:15:08.878Z,39.45
2017-01-04T08:16:08.905Z,39.54
2017-01-04T08:17:09.323Z,39.06
2017-01-04T08:18:08.948Z,39.16
2017-01-04T08:19:09.377Z,39.36
2017-01-04T08:20:09.005Z,39.36
2017-01-04T08:21:09.034Z,39.45
2017-01-04T08:22:09.059Z,39.26
2017-01-04T08:23:09.084Z,39.26
2017-01-04T08:24:09.500Z,39.26
2017-01-04T08:25:09.133Z,39.36
2017-01-04T08:26:09.162Z,39.43
2017-01-04T08:27:09.191Z,39.14
2017-01-04T08:28:09.611Z,39.53
2017-01-04T08:29:09.235Z,39.04
2017-01-04T08:30:09.268Z,39.04
2017-01-04T08:31:09.689Z,39.33
2017-01-04T08:32:09.719Z,39.53
2017-01-04T08:33:09.347Z,39.33
2017-01-04T08:34:09.368Z,39.45
2017-01-04T08:35:09.400Z,39.24
2017-01-04T08:36:09.478Z,39.14
2017-01-04T08:37:09.850Z,39.36
2017-01-04T08:38:09.879Z,39.04
2017-01-04T08:39:09.895Z,38.95
2017-01-04T08:40:09.924Z,39.43
2017-01-04T08:41:09.556Z,39.24
2017-01-04T08:42:09.982Z,39.53
2017-01-04T08:43:09.616Z,39.33
2017-01-04T08:44:09.636Z,39.53
2017-01-04T08:45:09.665Z,39.43
2017-01-04T08:46:10.085Z,39.33
2017-01-04T08:47:10.112Z,39.14
2017-01-04T08:48:09.743Z,38.95
2017-01-04T08:49:10.163Z,39.33
2017-01-04T08:50:10.192Z,39.53
2017-01-04T08:51:09.821Z,39.14
2017-01-04T08:52:09.845Z,39.43
2017-01-04T08:53:09.879Z,39.24
2017-01-04T08:54:09.898Z,39.62
2017-01-04T08:55:09.921Z,39.91
2017-01-04T08:56:09.954Z,39.33
2017-01-04T08:57:09.978Z,39.43
2017-01-04T08:58:10.399Z,39.43
2017-01-04T08:59:10.030Z,39.14
2017-01-04T09:00:10.454Z,40.11
2017-01-04T09:01:10.082Z,39.91
2017-01-04T09:02:10.508Z,39.33
2017-01-04T09:03:10.140Z,39.33
2017-01-04T09:04:10.561Z,40.11
2017-01-04T09:05:10.185Z,40.01
2017-01-04T09:06:10.204Z,39.81
2017-01-04T09:07:10.243Z,40.01
2017-01-04T09:08:10.264Z,39.72
2017-01-04T09:09:10.293Z,38.95
2017-01-04T09:10:10.322Z,39.43
2017-01-04T09:11:10.743Z,39.91
2017-01-04T09:12:10.375Z,39.33
2017-01-04T09:13:10.404Z,40.01
2017-01-04T09:14:10.822Z,39.53
2017-01-04T09:15:10.454Z,39.43
2017-01-04T09:16:10.479Z,39.91
2017-01-04T09:17:10.895Z,40.01
2017-01-04T09:18:10.546Z,39.91
2017-01-04T09:19:10.953Z,39.81
2017-01-04T09:20:10.982Z,39.91
2017-01-04T09:21:10.614Z,39.72
2017-01-04T09:22:11.039Z,39.81
2017-01-04T09:23:11.052Z,40.01
2017-01-04T09:24:11.089Z,39.81
2017-01-04T09:25:10.722Z,39.72
2017-01-04T09:26:10.746Z,39.91
2017-01-04T09:27:10.772Z,39.53
2017-01-04T09:28:10.797Z,39.81
2017-01-04T09:29:11.217Z,39.24
2017-01-04T09:30:11.246Z,39.81
2017-01-04T09:31:10.878Z,40.11
2017-01-04T09:32:10.899Z,39.41
2017-01-04T09:33:10.928Z,39.89
2017-01-04T09:34:11.345Z,39.72
2017-01-04T09:35:10.977Z,39.81
2017-01-04T09:36:11.007Z,39.79
2017-01-04T09:37:11.032Z,39.99
2017-01-04T09:38:11.454Z,39.53
2017-01-04T09:39:11.477Z,39.72
2017-01-04T09:40:11.110Z,39.91
2017-01-04T09:41:11.534Z,39.51
2017-01-04T09:42:11.559Z,39.72
2017-01-04T09:43:11.228Z,40.01
2017-01-04T09:44:11.213Z,39.72
2017-01-04T09:45:11.246Z,39.81
2017-01-04T09:46:11.661Z,39.62
2017-01-04T09:47:11.287Z,39.72
2017-01-04T09:48:11.316Z,40.08
2017-01-04T09:49:11.341Z,40.08
2017-01-04T09:50:11.374Z,40.01
2017-01-04T09:51:11.397Z,40.08
2017-01-04T09:52:11.422Z,39.99
2017-01-04T09:53:11.843Z,40.18
2017-01-04T09:54:11.868Z,40.08
2017-01-04T09:55:11.492Z,40.18
2017-01-04T09:56:11.922Z,39.89
2017-01-04T09:57:11.951Z,39.7
2017-01-04T09:58:11.577Z,39.99
2017-01-04T09:59:11.612Z,39.99
2017-01-04T10:00:11.633Z,40.18
2017-01-04T10:01:12.057Z,39.99
2017-01-04T10:02:12.078Z,40.08
2017-01-04T10:03:12.098Z,39.89
2017-01-04T10:04:12.123Z,39.99
2017-01-04T10:05:12.160Z,40.18
2017-01-04T10:06:12.185Z,40.08
2017-01-04T10:07:12.209Z,40.08
2017-01-04T10:08:12.234Z,40.37
2017-01-04T10:09:11.867Z,40.66
2017-01-04T10:10:11.892Z,40.66
2017-01-04T10:11:12.316Z,41.05
2017-01-04T10:12:12.341Z,41.24
2017-01-04T10:13:11.970Z,42.1
2017-01-04T10:14:12.394Z,41.14
2017-01-04T10:15:12.021Z,41.43
2017-01-04T10:16:12.050Z,42.1
2017-01-04T10:17:12.080Z,41.91
2017-01-04T10:18:12.104Z,41.53
2017-01-04T10:19:12.130Z,41.91
2017-01-04T10:20:12.547Z,42.39
2017-01-04T10:21:12.575Z,42.39
2017-01-04T10:22:12.196Z,42
2017-01-04T10:23:12.233Z,42.39
2017-01-04T10:24:12.649Z,42.3
2017-01-04T10:25:12.675Z,42.2
2017-01-04T10:26:12.311Z,42.1
2017-01-04T10:27:12.336Z,42.58
2017-01-04T10:28:12.761Z,42
2017-01-04T10:29:12.785Z,42.2
2017-01-04T10:30:12.810Z,42.1
2017-01-04T10:31:12.431Z,42.68
2017-01-04T10:32:12.851Z,42.3
2017-01-04T10:33:12.495Z,42.49
2017-01-04T10:34:12.522Z,43.07
2017-01-04T10:35:12.542Z,42.87
2017-01-04T10:36:12.576Z,43.26
2017-01-04T10:37:12.599Z,43.16
2017-01-04T10:38:13.018Z,42.77
2017-01-04T10:39:12.673Z,42.87
2017-01-04T10:40:12.681Z,42.87
2017-01-04T10:41:12.699Z,42.97
2017-01-04T10:42:13.123Z,43.16
2017-01-04T10:43:13.145Z,43.07
2017-01-04T10:44:12.781Z,43.16
2017-01-04T10:45:12.805Z,42.87
2017-01-04T10:46:13.238Z,42.77
2017-01-04T10:47:13.255Z,42.97
2017-01-04T10:48:12.901Z,43.26
2017-01-04T10:49:13.308Z,42.97
2017-01-04T10:50:13.327Z,42.97
2017-01-04T10:51:13.358Z,42.58
2017-01-04T10:52:12.990Z,42.87
2017-01-04T10:53:13.411Z,42.39
2017-01-04T10:54:13.431Z,42.87
2017-01-04T10:55:13.458Z,42.77
2017-01-04T10:56:13.093Z,42.87
2017-01-04T10:57:13.118Z,42.87
2017-01-04T10:58:13.146Z,42.49
2017-01-04T10:59:13.167Z,42.39
2017-01-04T11:00:13.192Z,42.2
2017-01-04T11:01:13.621Z,42.39
2017-01-04T11:02:13.681Z,42.39
2017-01-04T11:03:13.666Z,42.58
2017-01-04T11:04:13.312Z,42.68
2017-01-04T11:05:13.324Z,42.39
2017-01-04T11:06:13.753Z,42.49
2017-01-04T11:07:13.381Z,42.1
2017-01-04T11:08:13.798Z,42.49
2017-01-04T11:09:13.827Z,42.49
2017-01-04T11:10:13.855Z,42.1
2017-01-04T11:11:13.489Z,42
2017-01-04T11:12:13.905Z,42.2
2017-01-04T11:13:13.533Z,41.82
2017-01-04T11:14:13.562Z,42
2017-01-04T11:15:13.583Z,42.39
2017-01-04T11:16:14.012Z,42.39
2017-01-04T11:17:14.028Z,42.58
2017-01-04T11:18:14.061Z,42.49
2017-01-04T11:19:14.086Z,42.49
2017-01-04T11:20:13.718Z,42.2
2017-01-04T11:21:13.739Z,42.3
2017-01-04T11:22:14.164Z,42
2017-01-04T11:23:14.189Z,42.2
2017-01-04T11:24:13.849Z,42.3
2017-01-04T11:25:14.242Z,42.2
2017-01-04T11:26:14.267Z,42.39
2017-01-04T11:27:13.900Z,42.39
2017-01-04T11:28:13.952Z,42.1
2017-01-04T11:29:14.345Z,42.58
2017-01-04T11:30:13.974Z,42.3
2017-01-04T11:31:14.400Z,42
2017-01-04T11:32:14.023Z,41.91
2017-01-04T11:33:14.051Z,42.3
2017-01-04T11:34:14.077Z,42.39
2017-01-04T11:35:14.105Z,42.39
2017-01-04T11:36:14.126Z,42.2
2017-01-04T11:37:14.545Z,42.3
2017-01-04T11:38:14.183Z,42
2017-01-04T11:39:14.208Z,42.1
2017-01-04T11:40:14.237Z,42.2
2017-01-04T11:41:14.257Z,42.3
2017-01-04T11:42:14.682Z,42.08
2017-01-04T11:43:14.707Z,42.3
2017-01-04T11:44:14.344Z,42.3
2017-01-04T11:45:14.364Z,42
2017-01-04T11:46:14.785Z,42.3
2017-01-04T11:47:14.809Z,42
2017-01-04T11:48:14.443Z,42.49
2017-01-04T11:49:14.468Z,41.89
2017-01-04T11:50:14.888Z,42.18
2017-01-04T11:51:14.513Z,42.39
2017-01-04T11:52:14.936Z,42.3
2017-01-04T11:53:14.966Z,42.2
2017-01-04T11:54:14.603Z,42.3
2017-01-04T11:55:14.623Z,42.3
2017-01-04T11:56:14.644Z,42.3
2017-01-04T11:57:15.067Z,42.2
2017-01-04T11:58:15.098Z,42
2017-01-04T11:59:15.122Z,41.91
2017-01-04T12:00:15.146Z,42.3
2017-01-04T12:01:15.183Z,41.91
2017-01-04T12:02:14.808Z,41.91
2017-01-04T12:03:14.825Z,41.89
2017-01-04T12:04:14.858Z,42.18
2017-01-04T12:05:15.283Z,42
2017-01-04T12:06:15.312Z,41.99
2017-01-04T12:07:15.332Z,41.99
2017-01-04T12:08:14.961Z,42.3
2017-01-04T12:09:15.382Z,42.39
2017-01-04T12:10:15.011Z,42
2017-01-04T12:11:15.441Z,42.3
2017-01-04T12:12:15.465Z,42.1
2017-01-04T12:13:15.089Z,42.49
2017-01-04T12:14:15.116Z,42.27
2017-01-04T12:15:15.538Z,41.91
2017-01-04T12:16:15.572Z,43.04
2017-01-04T12:17:15.192Z,42.85
2017-01-04T12:18:15.617Z,43.14
2017-01-04T12:19:15.645Z,43.04
2017-01-04T12:20:15.672Z,42.97
2017-01-04T12:21:15.299Z,43.54
2017-01-04T12:22:15.325Z,43.81
2017-01-04T12:23:15.349Z,43.16
2017-01-04T12:24:15.375Z,43.26
2017-01-04T12:25:15.403Z,43.35
2017-01-04T12:26:15.428Z,43.54
2017-01-04T12:27:15.846Z,43.16
2017-01-04T12:28:15.890Z,43.26
2017-01-04T12:29:15.508Z,43.74
2017-01-04T12:30:15.527Z,43.45
2017-01-04T12:31:15.953Z,43.54
2017-01-04T12:32:15.586Z,43.62
2017-01-04T12:33:16.003Z,44.02
2017-01-04T12:34:16.032Z,43.62
2017-01-04T12:35:16.062Z,44.41
2017-01-04T12:36:16.091Z,44.12
2017-01-04T12:37:15.717Z,44.22
2017-01-04T12:38:15.739Z,44.12
2017-01-04T12:39:15.769Z,43.81
2017-01-04T12:40:15.794Z,44.02
2017-01-04T12:41:15.819Z,43.45
2017-01-04T12:42:15.863Z,43.54
2017-01-04T12:43:16.269Z,43.74
2017-01-04T12:44:16.293Z,43.54
2017-01-04T12:45:15.922Z,44.31
2017-01-04T12:46:16.347Z,44.31
2017-01-04T12:47:15.976Z,43.64
2017-01-04T12:48:16.401Z,43.71
2017-01-04T12:49:16.027Z,43.54
2017-01-04T12:50:16.056Z,43.54
2017-01-04T12:51:16.480Z,43.93
2017-01-04T12:52:16.505Z,43.93
2017-01-04T12:53:16.133Z,43.74
2017-01-04T12:54:16.154Z,43.91
2017-01-04T12:55:16.192Z,43.93
2017-01-04T12:56:16.212Z,43.74
2017-01-04T12:57:16.634Z,44.31
2017-01-04T12:58:16.262Z,43.84
2017-01-04T12:59:16.683Z,43.74
2017-01-04T13:00:16.712Z,43.84
2017-01-04T13:01:16.736Z,43.62
2017-01-04T13:02:16.765Z,43.84
2017-01-04T13:03:16.794Z,43.64